sensor_id;sensor_type;location;lat;lon;timestamp;temperature;humidity
4615;DHT22;2320;51.362;6.946;2023-02-11T00:01:32;7.30;99.90
4615;DHT22;2320;51.362;6.946;2023-02-11T00:03:58;7.30;99.90
4615;DHT22;2320;51.362;6.946;2023-02-11T00:06:27;7.40;99.90
4615;DHT22;2320;51.362;6.946;2023-02-11T00:08:53;7.40;99.90
4615;DHT22;2320;51.362;6.946;2023-02-11T00:11:19;7.50;99.90
4615;DHT22;2320;51.362;6.946;2023-02-11T00:13:45;7.50;99.90
4615;DHT22;2320;51.362;6.946;2023-02-11T00:16:12;7.50;99.90
4615;DHT22;2320;51.362;6.946;2023-02-11T00:18:38;7.50;99.90
4615;DHT22;2320;51.362;6.946;2023-02-11T00:21:08;7.50;99.90
4615;DHT22;2320;51.362;6.946;2023-02-11T00:23:33;7.50;99.90
4615;DHT22;2320;51.362;6.946;2023-02-11T00:25:59;7.50;99.90
4615;DHT22;2320;51.362;6.946;2023-02-11T00:28:24;7.50;99.90
4615;DHT22;2320;51.362;6.946;2023-02-11T00:30:53;7.40;99.90
4615;DHT22;2320;51.362;6.946;2023-02-11T00:33:19;7.50;99.90
4615;DHT22;2320;51.362;6.946;2023-02-11T00:35:44;7.40;99.90
4615;DHT22;2320;51.362;6.946;2023-02-11T00:38:10;7.30;99.90
4615;DHT22;2320;51.362;6.946;2023-02-11T00:40:35;7.30;99.90
4615;DHT22;2320;51.362;6.946;2023-02-11T00:43:01;7.30;99.90
4615;DHT22;2320;51.362;6.946;2023-02-11T00:45:26;7.30;99.90
4615;DHT22;2320;51.362;6.946;2023-02-11T00:47:53;7.40;99.90
4615;DHT22;2320;51.362;6.946;2023-02-11T00:50:18;7.50;99.90
4615;DHT22;2320;51.362;6.946;2023-02-11T00:52:44;7.50;99.90
4615;DHT22;2320;51.362;6.946;2023-02-11T00:55:09;7.60;99.90
4615;DHT22;2320;51.362;6.946;2023-02-11T00:57:34;7.50;99.90
4615;DHT22;2320;51.362;6.946;2023-02-11T01:00:00;7.60;99.90
4615;DHT22;2320;51.362;6.946;2023-02-11T01:02:25;7.60;99.90
4615;DHT22;2320;51.362;6.946;2023-02-11T01:04:51;7.50;99.90
4615;DHT22;2320;51.362;6.946;2023-02-11T01:07:17;7.50;99.90
4615;DHT22;2320;51.362;6.946;2023-02-11T01:09:42;7.60;99.90
4615;DHT22;2320;51.362;6.946;2023-02-11T01:12:08;7.60;99.90
4615;DHT22;2320;51.362;6.946;2023-02-11T01:14:33;7.70;99.90
4615;DHT22;2320;51.362;6.946;2023-02-11T01:16:59;7.70;99.90
4615;DHT22;2320;51.362;6.946;2023-02-11T01:19:24;7.80;99.90
4615;DHT22;2320;51.362;6.946;2023-02-11T01:21:50;7.70;99.90
4615;DHT22;2320;51.362;6.946;2023-02-11T01:24:15;7.80;99.90
4615;DHT22;2320;51.362;6.946;2023-02-11T01:26:41;7.80;99.90
4615;DHT22;2320;51.362;6.946;2023-02-11T01:29:06;7.80;99.90
4615;DHT22;2320;51.362;6.946;2023-02-11T01:31:33;7.90;99.90
4615;DHT22;2320;51.362;6.946;2023-02-11T01:33:59;7.90;99.90
4615;DHT22;2320;51.362;6.946;2023-02-11T01:36:25;7.90;99.90
4615;DHT22;2320;51.362;6.946;2023-02-11T01:38:50;7.80;99.90
4615;DHT22;2320;51.362;6.946;2023-02-11T01:41:16;7.80;99.90
4615;DHT22;2320;51.362;6.946;2023-02-11T01:43:42;7.80;99.90
4615;DHT22;2320;51.362;6.946;2023-02-11T01:49:11;7.80;99.90
4615;DHT22;2320;51.362;6.946;2023-02-11T01:51:43;7.70;99.90
4615;DHT22;2320;51.362;6.946;2023-02-11T01:54:12;7.80;99.90
4615;DHT22;2320;51.362;6.946;2023-02-11T01:56:57;7.70;99.90
4615;DHT22;2320;51.362;6.946;2023-02-11T02:02:09;7.80;99.90
4615;DHT22;2320;51.362;6.946;2023-02-11T02:04:37;7.80;99.90
4615;DHT22;2320;51.362;6.946;2023-02-11T02:07:07;7.80;99.90
4615;DHT22;2320;51.362;6.946;2023-02-11T02:09:35;7.80;99.90
4615;DHT22;2320;51.362;6.946;2023-02-11T02:12:02;7.60;99.90
4615;DHT22;2320;51.362;6.946;2023-02-11T02:14:27;7.60;99.90
4615;DHT22;2320;51.362;6.946;2023-02-11T02:16:53;7.70;99.90
4615;DHT22;2320;51.362;6.946;2023-02-11T02:24:37;7.70;99.90
4615;DHT22;2320;51.362;6.946;2023-02-11T02:34:44;7.70;99.90
4615;DHT22;2320;51.362;6.946;2023-02-11T02:37:17;7.80;99.90
4615;DHT22;2320;51.362;6.946;2023-02-11T02:39:44;7.80;99.90
4615;DHT22;2320;51.362;6.946;2023-02-11T02:42:11;7.80;99.90
4615;DHT22;2320;51.362;6.946;2023-02-11T02:44:37;7.70;99.90
4615;DHT22;2320;51.362;6.946;2023-02-11T02:47:02;7.80;99.90
4615;DHT22;2320;51.362;6.946;2023-02-11T02:49:28;7.80;99.90
4615;DHT22;2320;51.362;6.946;2023-02-11T02:51:59;7.70;99.90
4615;DHT22;2320;51.362;6.946;2023-02-11T03:02:37;7.60;99.90
4615;DHT22;2320;51.362;6.946;2023-02-11T03:05:24;7.70;99.90
4615;DHT22;2320;51.362;6.946;2023-02-11T03:07:56;7.80;99.90
4615;DHT22;2320;51.362;6.946;2023-02-11T03:10:25;7.60;99.90
4615;DHT22;2320;51.362;6.946;2023-02-11T03:12:51;7.60;99.90
4615;DHT22;2320;51.362;6.946;2023-02-11T03:15:18;7.60;99.90
4615;DHT22;2320;51.362;6.946;2023-02-11T03:17:46;7.70;99.90
4615;DHT22;2320;51.362;6.946;2023-02-11T03:20:12;7.70;99.90
4615;DHT22;2320;51.362;6.946;2023-02-11T03:22:40;7.60;99.90
4615;DHT22;2320;51.362;6.946;2023-02-11T03:25:06;7.60;99.90
4615;DHT22;2320;51.362;6.946;2023-02-11T03:27:35;7.70;99.90
4615;DHT22;2320;51.362;6.946;2023-02-11T03:30:13;7.60;99.90
4615;DHT22;2320;51.362;6.946;2023-02-11T03:32:44;7.60;99.90
4615;DHT22;2320;51.362;6.946;2023-02-11T03:37:49;7.60;99.90
4615;DHT22;2320;51.362;6.946;2023-02-11T03:40:22;7.60;99.90
4615;DHT22;2320;51.362;6.946;2023-02-11T03:42:52;7.50;99.90
4615;DHT22;2320;51.362;6.946;2023-02-11T03:45:19;7.50;99.90
4615;DHT22;2320;51.362;6.946;2023-02-11T03:47:49;7.50;99.90
4615;DHT22;2320;51.362;6.946;2023-02-11T03:50:16;7.50;99.90
4615;DHT22;2320;51.362;6.946;2023-02-11T03:52:42;7.50;99.90
4615;DHT22;2320;51.362;6.946;2023-02-11T03:55:14;7.60;99.90
4615;DHT22;2320;51.362;6.946;2023-02-11T03:57:40;7.50;99.90
4615;DHT22;2320;51.362;6.946;2023-02-11T04:00:06;7.50;99.90
4615;DHT22;2320;51.362;6.946;2023-02-11T04:02:32;7.50;99.90
4615;DHT22;2320;51.362;6.946;2023-02-11T04:04:58;7.50;99.90
4615;DHT22;2320;51.362;6.946;2023-02-11T04:07:24;7.50;99.90
4615;DHT22;2320;51.362;6.946;2023-02-11T04:09:50;7.50;99.90
4615;DHT22;2320;51.362;6.946;2023-02-11T04:12:15;7.50;99.90
4615;DHT22;2320;51.362;6.946;2023-02-11T04:14:41;7.50;99.90
4615;DHT22;2320;51.362;6.946;2023-02-11T04:17:06;7.50;99.90
4615;DHT22;2320;51.362;6.946;2023-02-11T04:19:32;7.60;99.90
4615;DHT22;2320;51.362;6.946;2023-02-11T04:21:57;7.60;99.90
4615;DHT22;2320;51.362;6.946;2023-02-11T04:24:23;7.50;99.90
4615;DHT22;2320;51.362;6.946;2023-02-11T04:26:48;7.40;99.90
4615;DHT22;2320;51.362;6.946;2023-02-11T04:29:13;7.50;99.90
4615;DHT22;2320;51.362;6.946;2023-02-11T04:31:39;7.50;99.90
4615;DHT22;2320;51.362;6.946;2023-02-11T04:34:04;7.50;99.90
4615;DHT22;2320;51.362;6.946;2023-02-11T04:36:30;7.40;99.90
4615;DHT22;2320;51.362;6.946;2023-02-11T04:38:55;7.40;99.90
4615;DHT22;2320;51.362;6.946;2023-02-11T04:41:21;7.50;99.90
4615;DHT22;2320;51.362;6.946;2023-02-11T04:43:46;7.40;99.90
4615;DHT22;2320;51.362;6.946;2023-02-11T04:46:12;7.40;99.90
4615;DHT22;2320;51.362;6.946;2023-02-11T04:48:37;7.40;99.90
4615;DHT22;2320;51.362;6.946;2023-02-11T04:51:03;7.40;99.90
4615;DHT22;2320;51.362;6.946;2023-02-11T04:53:28;7.40;99.90
4615;DHT22;2320;51.362;6.946;2023-02-11T04:55:54;7.50;99.90
4615;DHT22;2320;51.362;6.946;2023-02-11T04:58:19;7.60;99.90
4615;DHT22;2320;51.362;6.946;2023-02-11T05:00:45;7.60;99.90
4615;DHT22;2320;51.362;6.946;2023-02-11T05:03:11;7.50;99.90
4615;DHT22;2320;51.362;6.946;2023-02-11T05:05:40;7.60;99.90
4615;DHT22;2320;51.362;6.946;2023-02-11T05:08:06;7.60;99.90
4615;DHT22;2320;51.362;6.946;2023-02-11T05:10:32;7.70;99.90
4615;DHT22;2320;51.362;6.946;2023-02-11T05:12:57;7.70;99.90
4615;DHT22;2320;51.362;6.946;2023-02-11T05:15:23;7.70;99.90
4615;DHT22;2320;51.362;6.946;2023-02-11T05:17:48;7.70;99.90
4615;DHT22;2320;51.362;6.946;2023-02-11T05:20:14;7.50;99.90
4615;DHT22;2320;51.362;6.946;2023-02-11T05:22:39;7.50;99.90
4615;DHT22;2320;51.362;6.946;2023-02-11T05:25:05;7.60;99.90
4615;DHT22;2320;51.362;6.946;2023-02-11T05:27:30;7.40;99.90
4615;DHT22;2320;51.362;6.946;2023-02-11T05:29:56;7.30;99.90
4615;DHT22;2320;51.362;6.946;2023-02-11T05:32:21;7.30;99.90
4615;DHT22;2320;51.362;6.946;2023-02-11T05:34:47;7.40;99.90
4615;DHT22;2320;51.362;6.946;2023-02-11T05:37:12;7.40;99.90
4615;DHT22;2320;51.362;6.946;2023-02-11T05:39:38;7.40;99.90
4615;DHT22;2320;51.362;6.946;2023-02-11T05:42:03;7.40;99.90
4615;DHT22;2320;51.362;6.946;2023-02-11T05:44:29;7.40;99.90
4615;DHT22;2320;51.362;6.946;2023-02-11T05:46:54;7.50;99.90
4615;DHT22;2320;51.362;6.946;2023-02-11T05:49:20;7.40;99.90
4615;DHT22;2320;51.362;6.946;2023-02-11T05:51:45;7.30;99.90
4615;DHT22;2320;51.362;6.946;2023-02-11T05:54:11;7.30;99.90
4615;DHT22;2320;51.362;6.946;2023-02-11T05:56:36;7.30;99.90
4615;DHT22;2320;51.362;6.946;2023-02-11T05:59:02;7.20;99.90
4615;DHT22;2320;51.362;6.946;2023-02-11T06:01:27;7.30;99.90
4615;DHT22;2320;51.362;6.946;2023-02-11T06:03:53;7.30;99.90
4615;DHT22;2320;51.362;6.946;2023-02-11T06:06:19;7.30;99.90
4615;DHT22;2320;51.362;6.946;2023-02-11T06:08:44;7.20;99.90
4615;DHT22;2320;51.362;6.946;2023-02-11T06:11:10;7.20;99.90
4615;DHT22;2320;51.362;6.946;2023-02-11T06:13:35;7.30;99.90
4615;DHT22;2320;51.362;6.946;2023-02-11T06:16:01;7.30;99.90
4615;DHT22;2320;51.362;6.946;2023-02-11T06:18:27;7.30;99.90
4615;DHT22;2320;51.362;6.946;2023-02-11T06:20:52;7.30;99.90
4615;DHT22;2320;51.362;6.946;2023-02-11T06:23:18;7.30;99.90
4615;DHT22;2320;51.362;6.946;2023-02-11T06:25:43;7.30;99.90
4615;DHT22;2320;51.362;6.946;2023-02-11T06:28:09;7.30;99.90
4615;DHT22;2320;51.362;6.946;2023-02-11T06:30:35;7.30;99.90
4615;DHT22;2320;51.362;6.946;2023-02-11T06:33:01;7.20;99.90
4615;DHT22;2320;51.362;6.946;2023-02-11T06:35:27;7.20;99.90
4615;DHT22;2320;51.362;6.946;2023-02-11T06:37:52;7.20;99.90
4615;DHT22;2320;51.362;6.946;2023-02-11T06:40:18;7.10;99.90
4615;DHT22;2320;51.362;6.946;2023-02-11T06:42:44;7.10;99.90
4615;DHT22;2320;51.362;6.946;2023-02-11T06:45:10;7.20;99.90
4615;DHT22;2320;51.362;6.946;2023-02-11T06:47:37;7.20;99.90
4615;DHT22;2320;51.362;6.946;2023-02-11T06:50:03;7.20;99.90
4615;DHT22;2320;51.362;6.946;2023-02-11T06:52:30;7.20;99.90
4615;DHT22;2320;51.362;6.946;2023-02-11T06:54:55;7.10;99.90
4615;DHT22;2320;51.362;6.946;2023-02-11T06:57:21;7.10;99.90
4615;DHT22;2320;51.362;6.946;2023-02-11T06:59:46;7.10;99.90
4615;DHT22;2320;51.362;6.946;2023-02-11T07:02:12;7.20;99.90
4615;DHT22;2320;51.362;6.946;2023-02-11T07:04:37;7.10;99.90
4615;DHT22;2320;51.362;6.946;2023-02-11T07:07:02;7.20;99.90
4615;DHT22;2320;51.362;6.946;2023-02-11T07:09:28;7.30;99.90
4615;DHT22;2320;51.362;6.946;2023-02-11T07:11:54;7.30;99.90
4615;DHT22;2320;51.362;6.946;2023-02-11T07:14:19;7.30;99.90
4615;DHT22;2320;51.362;6.946;2023-02-11T07:16:45;7.30;99.90
4615;DHT22;2320;51.362;6.946;2023-02-11T07:19:10;7.40;99.90
4615;DHT22;2320;51.362;6.946;2023-02-11T07:21:35;7.40;99.90
4615;DHT22;2320;51.362;6.946;2023-02-11T07:24:01;7.20;99.90
4615;DHT22;2320;51.362;6.946;2023-02-11T07:26:30;7.30;99.90
4615;DHT22;2320;51.362;6.946;2023-02-11T07:28:55;7.20;99.90
4615;DHT22;2320;51.362;6.946;2023-02-11T07:31:25;7.30;99.90
4615;DHT22;2320;51.362;6.946;2023-02-11T07:33:51;7.30;99.90
4615;DHT22;2320;51.362;6.946;2023-02-11T07:36:17;7.30;99.90
4615;DHT22;2320;51.362;6.946;2023-02-11T07:38:43;7.30;99.90
4615;DHT22;2320;51.362;6.946;2023-02-11T07:41:09;7.30;99.90
4615;DHT22;2320;51.362;6.946;2023-02-11T07:43:35;7.40;99.90
4615;DHT22;2320;51.362;6.946;2023-02-11T07:46:02;7.40;99.90
4615;DHT22;2320;51.362;6.946;2023-02-11T07:48:28;7.40;99.90
4615;DHT22;2320;51.362;6.946;2023-02-11T07:50:53;7.40;99.90
4615;DHT22;2320;51.362;6.946;2023-02-11T07:53:19;7.40;99.90
4615;DHT22;2320;51.362;6.946;2023-02-11T07:55:44;7.50;99.90
4615;DHT22;2320;51.362;6.946;2023-02-11T07:58:09;7.40;99.90
4615;DHT22;2320;51.362;6.946;2023-02-11T08:00:35;7.50;99.90
4615;DHT22;2320;51.362;6.946;2023-02-11T08:03:01;7.50;99.90
4615;DHT22;2320;51.362;6.946;2023-02-11T08:05:26;7.50;99.90
4615;DHT22;2320;51.362;6.946;2023-02-11T08:07:52;7.60;99.90
4615;DHT22;2320;51.362;6.946;2023-02-11T08:10:18;7.50;99.90
4615;DHT22;2320;51.362;6.946;2023-02-11T08:12:44;7.60;99.90
4615;DHT22;2320;51.362;6.946;2023-02-11T08:15:09;7.50;99.90
4615;DHT22;2320;51.362;6.946;2023-02-11T08:17:35;7.60;99.90
4615;DHT22;2320;51.362;6.946;2023-02-11T08:20:01;7.70;99.90
4615;DHT22;2320;51.362;6.946;2023-02-11T08:22:29;7.70;99.90
4615;DHT22;2320;51.362;6.946;2023-02-11T08:24:55;7.80;99.90
4615;DHT22;2320;51.362;6.946;2023-02-11T08:27:22;7.90;99.90
4615;DHT22;2320;51.362;6.946;2023-02-11T08:29:48;7.90;99.90
4615;DHT22;2320;51.362;6.946;2023-02-11T08:32:13;8.10;99.90
4615;DHT22;2320;51.362;6.946;2023-02-11T08:34:39;8.00;99.90
4615;DHT22;2320;51.362;6.946;2023-02-11T08:37:04;8.00;99.90
4615;DHT22;2320;51.362;6.946;2023-02-11T08:39:30;8.00;99.90
4615;DHT22;2320;51.362;6.946;2023-02-11T08:41:55;8.10;99.90
4615;DHT22;2320;51.362;6.946;2023-02-11T08:44:21;8.10;99.90
4615;DHT22;2320;51.362;6.946;2023-02-11T08:46:47;8.00;99.90
4615;DHT22;2320;51.362;6.946;2023-02-11T08:49:13;8.10;99.90
4615;DHT22;2320;51.362;6.946;2023-02-11T08:51:39;8.10;99.90
4615;DHT22;2320;51.362;6.946;2023-02-11T08:54:04;8.00;99.90
4615;DHT22;2320;51.362;6.946;2023-02-11T08:56:33;8.00;99.90
4615;DHT22;2320;51.362;6.946;2023-02-11T08:58:59;8.10;99.90
4615;DHT22;2320;51.362;6.946;2023-02-11T09:01:25;8.10;99.90
4615;DHT22;2320;51.362;6.946;2023-02-11T09:03:51;8.10;99.90
4615;DHT22;2320;51.362;6.946;2023-02-11T09:06:17;8.20;99.90
4615;DHT22;2320;51.362;6.946;2023-02-11T09:08:43;8.20;99.90
4615;DHT22;2320;51.362;6.946;2023-02-11T09:11:09;8.30;99.90
4615;DHT22;2320;51.362;6.946;2023-02-11T09:13:35;8.20;99.90
4615;DHT22;2320;51.362;6.946;2023-02-11T09:16:01;8.30;99.90
4615;DHT22;2320;51.362;6.946;2023-02-11T09:18:26;8.30;99.90
4615;DHT22;2320;51.362;6.946;2023-02-11T09:20:53;8.30;99.90
4615;DHT22;2320;51.362;6.946;2023-02-11T09:23:18;8.30;99.90
4615;DHT22;2320;51.362;6.946;2023-02-11T09:25:44;8.40;99.90
4615;DHT22;2320;51.362;6.946;2023-02-11T09:28:09;8.40;99.90
4615;DHT22;2320;51.362;6.946;2023-02-11T09:30:36;8.40;99.90
4615;DHT22;2320;51.362;6.946;2023-02-11T09:33:02;8.40;99.90
4615;DHT22;2320;51.362;6.946;2023-02-11T09:35:27;8.40;99.90
4615;DHT22;2320;51.362;6.946;2023-02-11T09:37:53;8.60;99.90
4615;DHT22;2320;51.362;6.946;2023-02-11T09:40:19;8.50;99.90
4615;DHT22;2320;51.362;6.946;2023-02-11T09:43:02;8.50;99.90
4615;DHT22;2320;51.362;6.946;2023-02-11T09:45:28;8.60;99.90
4615;DHT22;2320;51.362;6.946;2023-02-11T09:48:04;8.60;99.90
4615;DHT22;2320;51.362;6.946;2023-02-11T09:50:36;8.70;99.90
4615;DHT22;2320;51.362;6.946;2023-02-11T09:55:35;8.70;99.90
4615;DHT22;2320;51.362;6.946;2023-02-11T09:58:04;8.60;99.90
4615;DHT22;2320;51.362;6.946;2023-02-11T10:00:42;8.70;99.90
4615;DHT22;2320;51.362;6.946;2023-02-11T10:10:50;8.70;99.90
4615;DHT22;2320;51.362;6.946;2023-02-11T10:21:16;8.90;99.90
4615;DHT22;2320;51.362;6.946;2023-02-11T10:23:44;8.90;99.90
4615;DHT22;2320;51.362;6.946;2023-02-11T10:26:12;9.00;99.90
4615;DHT22;2320;51.362;6.946;2023-02-11T10:28:38;8.80;99.90
4615;DHT22;2320;51.362;6.946;2023-02-11T10:31:05;9.00;99.90
4615;DHT22;2320;51.362;6.946;2023-02-11T10:33:39;9.00;99.90
4615;DHT22;2320;51.362;6.946;2023-02-11T10:36:08;9.20;99.90
4615;DHT22;2320;51.362;6.946;2023-02-11T10:38:35;9.20;99.90
4615;DHT22;2320;51.362;6.946;2023-02-11T10:41:01;9.20;99.90
4615;DHT22;2320;51.362;6.946;2023-02-11T10:43:27;9.30;99.90
4615;DHT22;2320;51.362;6.946;2023-02-11T10:45:53;9.20;99.90
4615;DHT22;2320;51.362;6.946;2023-02-11T10:53:33;9.20;99.90
4615;DHT22;2320;51.362;6.946;2023-02-11T10:56:00;9.30;99.90
4615;DHT22;2320;51.362;6.946;2023-02-11T10:58:31;9.40;99.90
4615;DHT22;2320;51.362;6.946;2023-02-11T11:01:00;9.50;99.90
4615;DHT22;2320;51.362;6.946;2023-02-11T11:03:26;9.30;99.90
4615;DHT22;2320;51.362;6.946;2023-02-11T11:06:05;9.30;99.90
4615;DHT22;2320;51.362;6.946;2023-02-11T11:11:04;9.40;99.90
4615;DHT22;2320;51.362;6.946;2023-02-11T11:13:34;9.40;99.90
4615;DHT22;2320;51.362;6.946;2023-02-11T11:18:42;9.30;99.90
4615;DHT22;2320;51.362;6.946;2023-02-11T11:21:11;9.30;99.90
4615;DHT22;2320;51.362;6.946;2023-02-11T11:23:38;9.30;99.90
4615;DHT22;2320;51.362;6.946;2023-02-11T11:28:30;9.20;99.90
4615;DHT22;2320;51.362;6.946;2023-02-11T11:30:56;9.30;99.90
4615;DHT22;2320;51.362;6.946;2023-02-11T11:33:24;9.40;99.90
4615;DHT22;2320;51.362;6.946;2023-02-11T11:38:21;9.40;99.90
4615;DHT22;2320;51.362;6.946;2023-02-11T11:40:46;9.40;99.90
4615;DHT22;2320;51.362;6.946;2023-02-11T11:43:32;9.40;99.90
4615;DHT22;2320;51.362;6.946;2023-02-11T11:45:58;9.50;99.90
4615;DHT22;2320;51.362;6.946;2023-02-11T11:50:56;9.40;99.90
4615;DHT22;2320;51.362;6.946;2023-02-11T11:53:24;9.60;99.90
4615;DHT22;2320;51.362;6.946;2023-02-11T11:56:05;9.50;99.90
4615;DHT22;2320;51.362;6.946;2023-02-11T11:58:32;9.50;99.90
4615;DHT22;2320;51.362;6.946;2023-02-11T12:03:37;9.50;99.90
4615;DHT22;2320;51.362;6.946;2023-02-11T12:13:47;9.80;99.90
4615;DHT22;2320;51.362;6.946;2023-02-11T12:16:32;9.80;99.90
4615;DHT22;2320;51.362;6.946;2023-02-11T12:24:28;9.90;99.90
4615;DHT22;2320;51.362;6.946;2023-02-11T12:26:56;10.00;99.90
4615;DHT22;2320;51.362;6.946;2023-02-11T12:29:30;10.00;99.90
4615;DHT22;2320;51.362;6.946;2023-02-11T12:57:41;10.10;99.90
4615;DHT22;2320;51.362;6.946;2023-02-11T13:05:12;9.90;99.90
4615;DHT22;2320;51.362;6.946;2023-02-11T13:07:41;9.90;99.90
4615;DHT22;2320;51.362;6.946;2023-02-11T13:10:15;9.90;99.90
4615;DHT22;2320;51.362;6.946;2023-02-11T13:12:42;9.90;99.90
4615;DHT22;2320;51.362;6.946;2023-02-11T13:15:27;9.80;99.90
4615;DHT22;2320;51.362;6.946;2023-02-11T13:18:16;10.10;99.90
4615;DHT22;2320;51.362;6.946;2023-02-11T13:20:45;10.10;99.90
4615;DHT22;2320;51.362;6.946;2023-02-11T13:23:18;9.90;99.90
4615;DHT22;2320;51.362;6.946;2023-02-11T13:25:49;10.10;99.90
4615;DHT22;2320;51.362;6.946;2023-02-11T13:31:01;10.20;99.90
4615;DHT22;2320;51.362;6.946;2023-02-11T13:33:37;10.20;99.90
4615;DHT22;2320;51.362;6.946;2023-02-11T13:36:14;10.40;99.90
4615;DHT22;2320;51.362;6.946;2023-02-11T13:38:40;10.30;99.90
4615;DHT22;2320;51.362;6.946;2023-02-11T13:41:21;10.30;99.90
4615;DHT22;2320;51.362;6.946;2023-02-11T13:46:52;10.30;99.90
4615;DHT22;2320;51.362;6.946;2023-02-11T13:49:22;10.30;99.90
4615;DHT22;2320;51.362;6.946;2023-02-11T13:51:48;10.30;99.90
4615;DHT22;2320;51.362;6.946;2023-02-11T13:54:34;10.40;99.90
4615;DHT22;2320;51.362;6.946;2023-02-11T14:00:03;10.20;99.90
4615;DHT22;2320;51.362;6.946;2023-02-11T14:02:32;10.20;99.90
4615;DHT22;2320;51.362;6.946;2023-02-11T14:08:11;10.40;99.90
4615;DHT22;2320;51.362;6.946;2023-02-11T14:16:12;10.40;99.90
4615;DHT22;2320;51.362;6.946;2023-02-11T14:23:44;10.30;99.90
4615;DHT22;2320;51.362;6.946;2023-02-11T14:28:35;10.30;99.90
4615;DHT22;2320;51.362;6.946;2023-02-11T14:31:06;10.40;99.90
4615;DHT22;2320;51.362;6.946;2023-02-11T14:36:18;10.20;99.90
4615;DHT22;2320;51.362;6.946;2023-02-11T14:39:02;10.30;99.90
4615;DHT22;2320;51.362;6.946;2023-02-11T14:41:31;10.30;99.90
4615;DHT22;2320;51.362;6.946;2023-02-11T14:44:05;10.30;99.90
4615;DHT22;2320;51.362;6.946;2023-02-11T14:46:31;10.40;99.90
4615;DHT22;2320;51.362;6.946;2023-02-11T14:48:59;10.50;99.90
4615;DHT22;2320;51.362;6.946;2023-02-11T14:51:30;10.60;99.90
4615;DHT22;2320;51.362;6.946;2023-02-11T14:53:57;10.60;99.90
4615;DHT22;2320;51.362;6.946;2023-02-11T14:56:26;10.60;99.90
4615;DHT22;2320;51.362;6.946;2023-02-11T14:58:53;10.70;99.90
4615;DHT22;2320;51.362;6.946;2023-02-11T15:01:39;10.80;99.90
4615;DHT22;2320;51.362;6.946;2023-02-11T15:04:14;10.60;99.90
4615;DHT22;2320;51.362;6.946;2023-02-11T15:06:46;10.80;99.90
4615;DHT22;2320;51.362;6.946;2023-02-11T15:11:38;10.70;99.90
4615;DHT22;2320;51.362;6.946;2023-02-11T15:14:08;10.80;99.90
4615;DHT22;2320;51.362;6.946;2023-02-11T15:16:36;10.80;99.90
4615;DHT22;2320;51.362;6.946;2023-02-11T15:19:05;10.80;99.90
4615;DHT22;2320;51.362;6.946;2023-02-11T15:21:32;10.60;99.90
4615;DHT22;2320;51.362;6.946;2023-02-11T15:24:17;10.70;99.90
4615;DHT22;2320;51.362;6.946;2023-02-11T15:26:44;10.50;99.90
4615;DHT22;2320;51.362;6.946;2023-02-11T15:29:18;10.60;99.90
4615;DHT22;2320;51.362;6.946;2023-02-11T15:31:43;10.50;99.90
4615;DHT22;2320;51.362;6.946;2023-02-11T15:34:10;10.60;99.90
4615;DHT22;2320;51.362;6.946;2023-02-11T15:36:36;10.50;99.90
4615;DHT22;2320;51.362;6.946;2023-02-11T15:39:15;10.50;99.90
4615;DHT22;2320;51.362;6.946;2023-02-11T15:41:41;10.60;99.90
4615;DHT22;2320;51.362;6.946;2023-02-11T15:44:24;10.60;99.90
4615;DHT22;2320;51.362;6.946;2023-02-11T15:46:50;10.60;99.90
4615;DHT22;2320;51.362;6.946;2023-02-11T15:49:15;10.40;99.90
4615;DHT22;2320;51.362;6.946;2023-02-11T15:51:43;10.50;99.90
4615;DHT22;2320;51.362;6.946;2023-02-11T15:54:17;10.50;99.90
4615;DHT22;2320;51.362;6.946;2023-02-11T15:56:44;10.50;99.90
4615;DHT22;2320;51.362;6.946;2023-02-11T16:01:50;10.30;99.90
4615;DHT22;2320;51.362;6.946;2023-02-11T16:04:16;10.40;99.90
4615;DHT22;2320;51.362;6.946;2023-02-11T16:06:42;10.40;99.90
4615;DHT22;2320;51.362;6.946;2023-02-11T16:17:04;10.40;99.90
4615;DHT22;2320;51.362;6.946;2023-02-11T16:19:31;10.30;99.90
4615;DHT22;2320;51.362;6.946;2023-02-11T16:21:58;10.30;99.90
4615;DHT22;2320;51.362;6.946;2023-02-11T16:24:28;10.20;99.90
4615;DHT22;2320;51.362;6.946;2023-02-11T16:26:55;10.10;99.90
4615;DHT22;2320;51.362;6.946;2023-02-11T16:29:25;10.10;99.90
4615;DHT22;2320;51.362;6.946;2023-02-11T16:31:52;10.00;99.90
4615;DHT22;2320;51.362;6.946;2023-02-11T16:34:21;9.90;99.90
4615;DHT22;2320;51.362;6.946;2023-02-11T16:36:47;9.90;99.90
4615;DHT22;2320;51.362;6.946;2023-02-11T16:39:13;9.80;99.90
4615;DHT22;2320;51.362;6.946;2023-02-11T16:41:39;9.90;99.90
4615;DHT22;2320;51.362;6.946;2023-02-11T16:44:05;9.90;99.90
4615;DHT22;2320;51.362;6.946;2023-02-11T16:46:30;9.90;99.90
4615;DHT22;2320;51.362;6.946;2023-02-11T16:49:07;9.90;99.90
4615;DHT22;2320;51.362;6.946;2023-02-11T16:51:33;9.90;99.90
4615;DHT22;2320;51.362;6.946;2023-02-11T16:53:58;9.90;99.90
4615;DHT22;2320;51.362;6.946;2023-02-11T16:56:25;9.90;99.90
4615;DHT22;2320;51.362;6.946;2023-02-11T16:58:50;9.80;99.90
4615;DHT22;2320;51.362;6.946;2023-02-11T17:01:16;9.80;99.90
4615;DHT22;2320;51.362;6.946;2023-02-11T17:03:42;9.80;99.90
4615;DHT22;2320;51.362;6.946;2023-02-11T17:06:08;9.70;99.90
4615;DHT22;2320;51.362;6.946;2023-02-11T17:08:34;9.80;99.90
4615;DHT22;2320;51.362;6.946;2023-02-11T17:11:00;9.80;99.90
4615;DHT22;2320;51.362;6.946;2023-02-11T17:13:26;9.80;99.90
4615;DHT22;2320;51.362;6.946;2023-02-11T17:15:51;9.70;99.90
4615;DHT22;2320;51.362;6.946;2023-02-11T17:18:17;9.70;99.90
4615;DHT22;2320;51.362;6.946;2023-02-11T17:20:42;9.70;99.90
4615;DHT22;2320;51.362;6.946;2023-02-11T17:23:08;9.80;99.90
4615;DHT22;2320;51.362;6.946;2023-02-11T17:25:33;9.80;99.90
4615;DHT22;2320;51.362;6.946;2023-02-11T17:28:02;9.60;99.90
4615;DHT22;2320;51.362;6.946;2023-02-11T17:30:28;9.70;99.90
4615;DHT22;2320;51.362;6.946;2023-02-11T17:32:53;9.70;99.90
4615;DHT22;2320;51.362;6.946;2023-02-11T17:35:18;9.70;99.90
4615;DHT22;2320;51.362;6.946;2023-02-11T17:37:44;9.70;99.90
4615;DHT22;2320;51.362;6.946;2023-02-11T17:40:10;9.70;99.90
4615;DHT22;2320;51.362;6.946;2023-02-11T17:42:35;9.70;99.90
4615;DHT22;2320;51.362;6.946;2023-02-11T17:45:01;9.80;99.90
4615;DHT22;2320;51.362;6.946;2023-02-11T17:47:26;9.80;99.90
4615;DHT22;2320;51.362;6.946;2023-02-11T17:49:52;9.70;99.90
4615;DHT22;2320;51.362;6.946;2023-02-11T17:52:17;9.70;99.90
4615;DHT22;2320;51.362;6.946;2023-02-11T17:54:43;9.70;99.90
4615;DHT22;2320;51.362;6.946;2023-02-11T17:57:09;9.80;99.90
4615;DHT22;2320;51.362;6.946;2023-02-11T17:59:36;9.80;99.90
4615;DHT22;2320;51.362;6.946;2023-02-11T18:02:02;9.70;99.90
4615;DHT22;2320;51.362;6.946;2023-02-11T18:04:28;9.70;99.90
4615;DHT22;2320;51.362;6.946;2023-02-11T18:06:54;9.60;99.90
4615;DHT22;2320;51.362;6.946;2023-02-11T18:09:20;9.60;99.90
4615;DHT22;2320;51.362;6.946;2023-02-11T18:11:45;9.50;99.90
4615;DHT22;2320;51.362;6.946;2023-02-11T18:14:11;9.50;99.90
4615;DHT22;2320;51.362;6.946;2023-02-11T18:16:36;9.70;99.90
4615;DHT22;2320;51.362;6.946;2023-02-11T18:19:03;9.70;99.90
4615;DHT22;2320;51.362;6.946;2023-02-11T18:21:30;9.70;99.90
4615;DHT22;2320;51.362;6.946;2023-02-11T18:23:56;9.50;99.90
4615;DHT22;2320;51.362;6.946;2023-02-11T18:26:22;9.70;99.90
4615;DHT22;2320;51.362;6.946;2023-02-11T18:28:50;9.60;99.90
4615;DHT22;2320;51.362;6.946;2023-02-11T18:31:16;9.60;99.90
4615;DHT22;2320;51.362;6.946;2023-02-11T18:33:42;9.60;99.90
4615;DHT22;2320;51.362;6.946;2023-02-11T18:36:08;9.60;99.90
4615;DHT22;2320;51.362;6.946;2023-02-11T18:38:34;9.60;99.90
4615;DHT22;2320;51.362;6.946;2023-02-11T18:41:00;9.60;99.90
4615;DHT22;2320;51.362;6.946;2023-02-11T18:43:26;9.70;99.90
4615;DHT22;2320;51.362;6.946;2023-02-11T18:45:56;9.60;99.90
4615;DHT22;2320;51.362;6.946;2023-02-11T18:48:21;9.70;99.90